Aviation Discussion

  

Terminal Aviation Forecasts

TAFBWI (View previous versions )
KBWI 080535Z 0806/0912 22005KT P6SM BKN100
     FM081800 23006KT P6SM -SHRA VCTS BKN050CB
     FM090100 25005KT P6SM BKN035=

TAFCHO (View previous versions )
KCHO 072333Z 0800/0824 21006KT P6SM FEW035
     FM080600 24004KT P6SM SCT250
     FM081100 23005KT P6SM BKN090
     FM081800 24009KT P6SM BKN060
     FM081900 24008KT P6SM -SHRA VCTS BKN060CB
     FM082200 24007KT P6SM BKN050=

TAFDCA (View previous versions )
KDCA 072333Z 0800/0824 20006KT P6SM FEW035
     FM080900 23004KT P6SM BKN070
     FM081600 24008KT P6SM -SHRA BKN050
     FM081900 24010KT P6SM -SHRA VCTS BKN040CB=

TAFIAD (View previous versions )
KIAD 071740Z 0718/0824 24008KT P6SM BKN040
     FM072100 20006KT P6SM SCT080
     FM080400 VRB03KT P6SM SCT070 BKN120
     FM081300 23007KT P6SM VCSH SCT040 BKN100
     FM081600 24009KT P6SM -SHRA VCTS BKN040CB=

TAFMRB (View previous versions )
KMRB 080535Z 0806/0906 21004KT P6SM BKN100
     FM081300 22004KT P6SM -SHRA BKN070
     FM081600 23006KT P6SM -SHRA VCTS BKN040CB
     FM090100 26005KT P6SM BKN040
     FM090500 26004KT 6SM BR BKN025=

TAFMTN (View previous versions )
KMTN 071140Z 0712/0812 VRB03KT P6SM SCT015
     FM071300 24006KT P6SM SCT020
     FM072100 18011KT P6SM SCT060=


Meteorological Impact Statement

ZDC MIS 02 VALID 071850-080300
...FOR ATC PLANNING PURPOSES ONLY...
ISOLD-WDLY SCT SHRA/TSRA E NC / NE ZDC / WV. TOPS TO FL400 MOVG NE-E 
15KT. LGT-MOC CHOP ABV FL200...LCL SEV POSSIBLE.

Surface Map


TRACON Thunderstorm Forecast


Vertical Wind Profiles